Enter the Airport ICAO Code

Search by Airport or City

Current Weather

SAZN | Presidente Perón International Airport

Neuquén, Neuquén, Argentina

Last Update 49 Minutes Ago

Sky with Few Clouds

Temperature of 31 ºC

Light to Moderate Winds from North

Temperature

31 ºC

Dew Point Temperature

07 ºC

Relative Humidity

22.48 %

Wind Direction

North (020º, Without Significant Variations)

Wind Velocity

9 km/h (05 kt)

Gusts

None

Visibility

Greater than 10 Kilometers

Sea Level Pressure

1014 hPa (Hectopascals)

Layers of Clouds

5% to 30% of Sky Covered from 1219 mts (4000 ft) Above Ground Level.

METAR SAZN 052100Z 02005KT 9999 FEW040 31/07 Q1014

Weather Forecast

SAZN | Presidente Perón International Airport

Neuquén, Neuquén, Argentina

Forecast valid for the next 20 Hours

From now on it is expected:

Clear Sky

Moderate Winds from North

From now on it is expected 8 hours with intermittent periods of:

Moderate to Strong Winds from North

Maximum Temperature

32 ºC in 20 Hours

Minimum Temperature

18 ºC in 12 Hours

TAF SAZN 051700Z 0518/0618 02010KT CAVOK TX32/0618Z TN18/0610Z TEMPO 0518/0606 02020KT